Time,TemperatureF,DewpointF,PressureIn,WindDirection,WindDirectionDegrees,WindSpeedMPH,WindSpeedGustMPH,Humidity,HourlyPrecipIn,Conditions,Clouds,dailyrainin,SoftwareType,DateUTC
2013-01-19 00:29:00,40.9,17.9,30.11,SSW,202,0.0,0.0,39,0.00,,---,0.00,VWS V13.01,2013-01-19 08:29:00,
2013-01-19 00:59:00,40.5,22.9,30.12,SSW,202,0.0,0.0,49,0.00,,---,0.00,VWS V13.01,2013-01-19 08:59:00,
2013-01-19 01:29:00,40.5,25.2,30.12,SSW,202,0.0,0.0,54,0.00,,---,0.00,VWS V13.01,2013-01-19 09:29:00,
2013-01-19 01:59:00,40.2,25.8,30.12,SSW,202,0.0,0.0,56,0.00,,---,0.00,VWS V13.01,2013-01-19 09:59:00,
2013-01-19 02:29:00,40.1,25.7,30.12,SSW,202,0.0,0.0,56,0.00,,---,0.00,VWS V13.01,2013-01-19 10:29:00,
2013-01-19 02:59:00,39.5,28.0,30.12,SSW,202,0.0,3.0,63,0.00,,---,0.00,VWS V13.01,2013-01-19 10:59:00,
2013-01-19 04:59:00,38.8,25.3,30.13,SSW,202,0.0,2.0,58,0.00,,---,0.00,VWS V13.01,2013-01-19 12:59:00,
2013-01-19 05:29:00,38.6,26.7,30.14,SSW,202,0.0,2.0,62,0.00,,---,0.00,VWS V13.01,2013-01-19 13:29:00,
2013-01-19 05:59:00,37.8,26.4,30.14,SSW,202,0.0,0.0,63,0.00,,---,0.00,VWS V13.01,2013-01-19 13:59:00,
2013-01-19 06:29:00,38.5,25.0,30.15,SSW,202,0.0,2.0,58,0.00,,---,0.00,VWS V13.01,2013-01-19 14:29:00,
2013-01-19 06:59:00,38.8,22.2,30.16,SSW,202,0.0,1.0,51,0.00,,---,0.00,VWS V13.01,2013-01-19 14:59:00,
2013-01-19 07:29:00,38.2,23.9,30.17,SSW,202,0.0,1.0,56,0.00,,---,0.00,VWS V13.01,2013-01-19 15:29:00,
2013-01-19 07:59:00,38.8,21.8,30.17,SSW,202,0.0,2.0,50,0.00,,---,0.00,VWS V13.01,2013-01-19 15:59:00,
2013-01-19 08:29:00,40.8,18.4,30.17,SSW,202,1.0,3.0,40,0.00,,---,0.00,VWS V13.01,2013-01-19 16:29:00,
2013-01-19 08:59:00,44.1,21.9,30.18,SSW,202,0.0,2.0,41,0.00,,---,0.00,VWS V13.01,2013-01-19 16:59:00,
2013-01-19 09:29:00,48.6,0.0,30.18,SSW,202,0.0,2.0,13,0.00,,---,0.00,VWS V13.01,2013-01-19 17:29:00,
2013-01-19 10:59:00,62.9,62.9,30.16,SSW,200,0.0,1.0,100,0.00,,---,0.00,VWS V13.01,2013-01-19 18:59:00,
2013-01-19 11:59:00,71.3,71.3,30.12,NW,318,0.0,5.0,100,0.00,,---,0.00,VWS V13.01,2013-01-19 19:59:00,
2013-01-19 12:59:00,68.8,68.8,30.10,SSW,198,0.0,6.0,100,0.00,,---,0.00,VWS V13.01,2013-01-19 20:59:00,
2013-01-19 13:59:00,74.0,74.0,30.09,South,191,2.0,7.0,100,0.00,,---,0.00,VWS V13.01,2013-01-19 21:59:00,
2013-01-19 14:29:00,74.4,74.4,30.09,SSW,209,1.0,8.0,100,0.00,,---,0.00,VWS V13.01,2013-01-19 22:29:00,
2013-01-19 14:59:00,74.9,74.9,30.08,SSW,209,0.0,3.0,100,0.00,,---,0.00,VWS V13.01,2013-01-19 22:59:00,
2013-01-19 15:59:00,68.1,68.1,30.09,SSW,212,1.0,5.0,100,0.00,,---,0.00,VWS V13.01,2013-01-19 23:59:00,
2013-01-19 16:29:00,66.4,66.4,30.10,SSW,212,0.0,2.0,100,0.00,,---,0.00,VWS V13.01,2013-01-20 00:29:00,
2013-01-19 16:59:00,64.0,64.0,30.10,SSW,212,0.0,0.0,100,0.00,,---,0.00,VWS V13.01,2013-01-20 00:59:00,
2013-01-19 17:29:00,58.3,0.0,30.12,SSW,212,0.0,1.0,0,0.00,,---,0.00,VWS V13.01,2013-01-20 01:29:00,
2013-01-19 17:59:00,54.5,0.0,30.12,SSW,212,0.0,1.0,0,0.00,,---,0.00,VWS V13.01,2013-01-20 01:59:00,
2013-01-19 18:29:00,51.9,-5.2,30.13,SSW,212,0.0,0.0,9,0.00,,---,0.00,VWS V13.01,2013-01-20 02:29:00,
2013-01-19 18:59:00,49.9,1.0,30.14,SSW,212,0.0,0.0,13,0.00,,---,0.00,VWS V13.01,2013-01-20 02:59:00,
2013-01-19 19:29:00,48.5,8.1,30.14,SSW,212,0.0,0.0,19,0.00,,---,0.00,VWS V13.01,2013-01-20 03:29:00,
2013-01-19 19:59:00,47.3,7.1,30.15,SSW,212,0.0,0.0,19,0.00,,---,0.00,VWS V13.01,2013-01-20 03:59:00,
2013-01-19 20:29:00,46.4,6.4,30.15,SSW,212,0.0,0.0,19,0.00,,---,0.00,VWS V13.01,2013-01-20 04:29:00,
2013-01-19 20:59:00,45.7,2.1,30.16,SSW,212,0.0,0.0,16,0.00,,---,0.00,VWS V13.01,2013-01-20 04:59:00,
2013-01-19 21:29:00,44.9,-3.0,30.16,SSW,212,0.0,0.0,13,0.00,,---,0.00,VWS V13.01,2013-01-20 05:29:00,
2013-01-19 21:59:00,44.1,8.7,30.17,SSW,212,0.0,0.0,23,0.00,,---,0.00,VWS V13.01,2013-01-20 05:59:00,
2013-01-19 22:29:00,43.2,12.3,30.17,SSW,212,0.0,0.0,28,0.00,,---,0.00,VWS V13.01,2013-01-20 06:29:00,
2013-01-19 22:59:00,43.1,12.2,30.17,SSW,212,0.0,0.0,28,0.00,,---,0.00,VWS V13.01,2013-01-20 06:59:00,
2013-01-19 23:29:00,43.2,4.8,30.16,SSW,212,0.0,0.0,20,0.00,,---,0.00,VWS V13.01,2013-01-20 07:29:00,
2013-01-19 23:59:00,42.3,7.2,30.16,SSW,212,0.0,0.0,23,0.00,,---,0.00,VWS V13.01,2013-01-20 07:59:00,